createdAt,value
2018-09-11T06:55:32.571Z,65.27
2018-09-11T06:56:13.375Z,64.88
2018-09-11T06:56:54.134Z,64.43
2018-09-11T06:57:34.913Z,64.04
2018-09-11T06:58:15.728Z,64.23
2018-09-11T06:58:56.629Z,64.23
2018-09-11T06:59:37.404Z,64.3
2018-09-11T07:00:18.115Z,64.4
2018-09-11T07:00:58.843Z,64.78
2018-09-11T07:01:39.591Z,64.5
2018-09-11T07:02:20.359Z,64.3
2018-09-11T07:03:01.187Z,64.88
2018-09-11T07:03:42.000Z,64.5
2018-09-11T07:04:22.775Z,64.5
2018-09-11T07:05:03.485Z,64.5
2018-09-11T07:05:44.251Z,64.69
2018-09-11T07:06:25.072Z,65.17
2018-09-11T07:07:05.797Z,65.17
2018-09-11T07:07:46.481Z,65.17
2018-09-11T07:08:27.284Z,65.37
2018-09-11T07:09:07.994Z,65.37
2018-09-11T07:09:48.823Z,65.17
2018-09-11T07:10:29.659Z,65.17
2018-09-11T07:11:10.391Z,65.17
2018-09-11T07:11:51.081Z,65.27
2018-09-11T07:12:31.812Z,64.88
2018-09-11T07:13:12.584Z,65.17
2018-09-11T07:13:53.444Z,65.37
2018-09-11T07:14:34.189Z,65.08
2018-09-11T07:15:14.918Z,65.08
2018-09-11T07:15:55.812Z,64.98
2018-09-11T07:16:36.568Z,64.88
2018-09-11T07:17:17.366Z,64.78
2018-09-11T07:17:58.146Z,65.08
2018-09-11T07:18:38.861Z,64.98
2018-09-11T07:19:19.646Z,65.08
2018-09-11T07:20:00.508Z,65.37
2018-09-11T07:20:41.230Z,65.37
2018-09-11T07:21:22.051Z,65.37
2018-09-11T07:22:02.744Z,65.2
2018-09-11T07:22:43.479Z,65.4
2018-09-11T07:23:24.262Z,64.92
2018-09-11T07:24:04.990Z,64.72
2018-09-11T07:24:45.717Z,64.72
2018-09-11T07:25:26.439Z,64.72
2018-09-11T07:26:07.242Z,64.33
2018-09-11T07:26:48.057Z,64.23
2018-09-11T07:27:28.783Z,64.26
2018-09-11T07:28:09.585Z,64.46
2018-09-11T07:28:50.411Z,64.26
2018-09-11T07:29:31.177Z,64.17
2018-09-11T07:30:12.034Z,64.17
2018-09-11T07:30:52.734Z,64.46
2018-09-11T07:31:33.518Z,64.07
2018-09-11T07:32:14.339Z,63.78
2018-09-11T07:32:55.020Z,63.88
2018-09-11T07:33:35.731Z,63.88
2018-09-11T07:34:16.497Z,63.88
2018-09-11T07:34:57.278Z,63.88
2018-09-11T07:35:38.128Z,63.98
2018-09-11T07:36:18.943Z,64.07
2018-09-11T07:36:59.722Z,63.98
2018-09-11T07:37:40.423Z,63.88
2018-09-11T07:38:21.170Z,63.98
2018-09-11T07:39:01.906Z,63.78
2018-09-11T07:39:42.734Z,64.07
2018-09-11T07:40:23.480Z,63.98
2018-09-11T07:41:04.190Z,63.98
2018-09-11T07:41:44.990Z,63.98
2018-09-11T07:42:25.776Z,63.59
2018-09-11T07:43:06.623Z,63.88
2018-09-11T07:43:47.393Z,63.88
2018-09-11T07:44:28.119Z,63.88
2018-09-11T07:45:08.842Z,63.49
2018-09-11T07:45:49.657Z,63.78
2018-09-11T07:46:30.386Z,64.36
2018-09-11T07:47:11.195Z,64.69
2018-09-11T07:47:51.979Z,64.36
2018-09-11T07:48:32.721Z,64.36
2018-09-11T07:49:13.565Z,64.17
2018-09-11T07:49:54.339Z,64.07
2018-09-11T07:50:35.067Z,64.36
2018-09-11T07:51:15.829Z,64.36
2018-09-11T07:51:56.541Z,64.26
2018-09-11T07:52:37.401Z,64.17
2018-09-11T07:53:18.170Z,64.17
2018-09-11T07:53:58.949Z,64.07
2018-09-11T07:54:39.715Z,64.26
2018-09-11T07:55:20.430Z,64.26
2018-09-11T07:56:01.215Z,64.17
2018-09-11T07:56:42.040Z,64.17
2018-09-11T07:57:22.769Z,64.07
2018-09-11T07:58:03.619Z,64.85
2018-09-11T07:58:44.257Z,64.75
2018-09-11T07:59:25.051Z,64.95
2018-09-11T08:00:05.905Z,65.14
2018-09-11T08:00:46.657Z,65.05
2018-09-11T08:01:27.362Z,65.24
2018-09-11T08:02:08.256Z,65.24
2018-09-11T08:02:49.030Z,65.24
2018-09-11T08:03:29.799Z,64.85
2018-09-11T08:04:10.546Z,65.43
2018-09-11T08:04:51.244Z,64.75
2018-09-11T08:05:32.085Z,65.05
2018-09-11T08:06:13.551Z,65.14
2018-09-11T08:06:54.306Z,65.24
2018-09-11T08:07:35.144Z,66.6
2018-09-11T08:08:15.923Z,66.02
2018-09-11T08:08:56.757Z,65.24
2018-09-11T08:09:37.500Z,65.24
2018-09-11T08:10:18.217Z,65.53
2018-09-11T08:10:58.957Z,65.24
2018-09-11T08:11:39.708Z,65.82
2018-09-11T08:12:20.538Z,66.02
2018-09-11T08:13:01.390Z,66.11
2018-09-11T08:13:42.148Z,65.72
2018-09-11T08:14:22.870Z,66.21
2018-09-11T08:15:03.672Z,66.21
2018-09-11T08:15:44.498Z,66.79
2018-09-11T08:16:25.293Z,66.5
2018-09-11T08:17:06.004Z,67.57
2018-09-11T08:17:46.730Z,66.69
2018-09-11T08:18:27.596Z,66.79
2018-09-11T08:19:08.357Z,66.99
2018-09-11T08:19:49.209Z,66.99
2018-09-11T08:20:29.926Z,69.02
2018-09-11T08:21:10.654Z,68.73
2018-09-11T08:21:51.345Z,68.73
2018-09-11T08:22:32.076Z,69.6
2018-09-11T08:23:12.877Z,69.02
2018-09-11T08:23:53.630Z,69.51
2018-09-11T08:24:34.385Z,70.77
2018-09-11T08:25:15.183Z,69.12
2018-09-11T08:25:56.000Z,70.87
2018-09-11T08:26:36.789Z,71.26
2018-09-11T08:27:17.531Z,70.57
2018-09-11T08:27:58.279Z,70.67
2018-09-11T08:28:39.058Z,71.45
2018-09-11T08:29:19.953Z,70.67
2018-09-11T08:30:00.680Z,71.26
2018-09-11T08:30:41.493Z,71.84
2018-09-11T08:31:22.243Z,71.26
2018-09-11T08:32:02.957Z,70.48
2018-09-11T08:32:43.822Z,70.77
2018-09-11T08:33:24.571Z,69.51
2018-09-11T08:34:05.315Z,71.36
2018-09-11T08:34:46.020Z,70.67
2018-09-11T08:35:26.789Z,70.29
2018-09-11T08:36:07.603Z,71.36
2018-09-11T08:36:48.362Z,71.45
2018-09-11T08:37:29.122Z,71.84
2018-09-11T08:38:09.952Z,72.03
2018-09-11T08:38:50.718Z,71.26
2018-09-11T08:39:31.516Z,71.06
2018-09-11T08:40:12.274Z,69.7
2018-09-11T08:40:53.069Z,69.12
2018-09-11T08:41:33.893Z,69.9
2018-09-11T08:42:14.647Z,69.41
2018-09-11T08:42:55.359Z,70.19
2018-09-11T08:43:36.139Z,71.26
2018-09-11T08:44:16.881Z,72.13
2018-09-11T08:44:57.703Z,71.36
2018-09-11T08:45:38.559Z,71.36
2018-09-11T08:46:19.345Z,72.52
2018-09-11T08:47:00.092Z,73.39
2018-09-11T08:47:40.841Z,72.81
2018-09-11T08:48:21.624Z,73.1
2018-09-11T08:49:02.436Z,73
2018-09-11T08:49:43.216Z,72.81
2018-09-11T08:50:23.879Z,73.1
2018-09-11T08:51:04.670Z,73.1
2018-09-11T08:51:45.481Z,72.91
2018-09-11T08:52:26.318Z,72.61
2018-09-11T08:53:07.037Z,72.03
2018-09-11T08:53:47.818Z,72.03
2018-09-11T08:54:28.615Z,72.52
2018-09-11T08:55:09.375Z,73
2018-09-11T08:55:50.113Z,73.58
2018-09-11T08:56:30.816Z,73.1
2018-09-11T08:57:11.603Z,73
2018-09-11T08:57:52.404Z,73
2018-09-11T08:58:33.209Z,72.71
2018-09-11T08:59:13.889Z,72.71
2018-09-11T08:59:54.747Z,72.91
2018-09-11T09:00:35.542Z,73.1
2018-09-11T09:01:16.352Z,72.61
2018-09-11T09:01:57.098Z,73.68
2018-09-11T09:02:37.856Z,73.2
2018-09-11T09:03:18.565Z,73.78
2018-09-11T09:03:59.419Z,73
2018-09-11T09:04:40.170Z,73.39
2018-09-11T09:05:21.000Z,72.52
2018-09-11T09:06:01.747Z,73.1
2018-09-11T09:06:42.510Z,72.52
2018-09-11T09:07:23.352Z,72.52
2018-09-11T09:08:04.132Z,72.52
2018-09-11T09:08:44.888Z,73.3
2018-09-11T09:09:25.636Z,73.2
2018-09-11T09:10:06.460Z,72.91
2018-09-11T09:10:47.265Z,73.2
2018-09-11T09:11:28.004Z,72.71
2018-09-11T09:12:08.735Z,72.61
2018-09-11T09:12:49.591Z,73.1
2018-09-11T09:13:30.375Z,73.2
2018-09-11T09:14:11.192Z,72.71
2018-09-11T09:14:52.004Z,73.3
2018-09-11T09:15:32.714Z,73
2018-09-11T09:16:13.551Z,73.2
2018-09-11T09:16:54.290Z,73.1
2018-09-11T09:17:35.064Z,73.1
2018-09-11T09:18:15.768Z,73.3
2018-09-11T09:18:56.545Z,73.2
2018-09-11T09:19:37.360Z,73.1
2018-09-11T09:20:18.171Z,73.1
2018-09-11T09:20:59.004Z,73
2018-09-11T09:21:39.727Z,73.3
2018-09-11T09:22:20.484Z,73.2
2018-09-11T09:23:01.219Z,72.61
2018-09-11T09:23:42.053Z,72.71
2018-09-11T09:24:22.815Z,72.23
2018-09-11T09:25:03.580Z,72.03
2018-09-11T09:25:44.364Z,72.42
2018-09-11T09:26:25.135Z,71.94
2018-09-11T09:27:05.970Z,72.81
2018-09-11T09:27:46.691Z,72.13
2018-09-11T09:28:27.459Z,72.45
2018-09-11T09:29:08.218Z,72.61
2018-09-11T09:29:48.985Z,72.33
2018-09-11T09:30:29.782Z,72.03
2018-09-11T09:31:10.630Z,72.33
2018-09-11T09:31:51.409Z,72.23
2018-09-11T09:32:32.162Z,72.17
2018-09-11T09:33:13.013Z,72.42
2018-09-11T09:33:53.799Z,72.42
2018-09-11T09:34:34.550Z,72.45
2018-09-11T09:35:15.267Z,72.45
2018-09-11T09:35:56.031Z,72.36
2018-09-11T09:36:36.924Z,71.94
2018-09-11T09:37:17.596Z,72.27
2018-09-11T09:37:58.446Z,71.74
2018-09-11T09:38:39.241Z,72.07
2018-09-11T09:39:20.000Z,71.1
2018-09-11T09:40:00.762Z,71.45
2018-09-11T09:40:41.499Z,71.48
2018-09-11T09:41:22.312Z,71.58
2018-09-11T09:42:03.058Z,71.58
2018-09-11T09:42:43.792Z,71.2
2018-09-11T09:43:24.614Z,71.55
2018-09-11T09:44:05.506Z,71.29
2018-09-11T09:44:46.288Z,71.39
2018-09-11T09:45:27.018Z,71.26
2018-09-11T09:46:07.805Z,71.2
2018-09-11T09:46:48.605Z,71.58
2018-09-11T09:47:29.343Z,71.29
2018-09-11T09:48:10.050Z,71.2
2018-09-11T09:48:50.822Z,72.03
2018-09-11T09:49:31.625Z,71.29
2018-09-11T09:50:12.416Z,71
2018-09-11T09:50:53.194Z,71.29
2018-09-11T09:51:33.973Z,71.39
2018-09-11T09:52:14.783Z,71.58
2018-09-11T09:52:55.601Z,71.58
2018-09-11T09:53:36.399Z,71.58
2018-09-11T09:54:17.112Z,72.07
2018-09-11T09:54:57.882Z,72.07
2018-09-11T09:55:38.642Z,72.07
2018-09-11T09:56:19.464Z,71.55
2018-09-11T09:57:00.264Z,71.29
2018-09-11T09:57:41.084Z,71.29
2018-09-11T09:58:21.862Z,71.1
2018-09-11T09:59:02.572Z,70.81
2018-09-11T09:59:43.443Z,70.12
2018-09-11T10:00:24.146Z,69.64
2018-09-11T10:01:04.880Z,69.45
2018-09-11T10:01:45.623Z,69.64
2018-09-11T10:02:26.373Z,69.06
2018-09-11T10:03:07.187Z,68.96
2018-09-11T10:03:47.973Z,68.87
2018-09-11T10:04:28.869Z,69.06
2018-09-11T10:05:09.575Z,68.77
2018-09-11T10:05:50.297Z,69.06
2018-09-11T10:06:31.035Z,69.15
2018-09-11T10:07:11.792Z,69.06
2018-09-11T10:07:52.637Z,69.45
2018-09-11T10:08:33.380Z,69.35
2018-09-11T10:09:14.113Z,69.15
2018-09-11T10:09:54.951Z,69.06
2018-09-11T10:10:35.712Z,69.15
2018-09-11T10:11:16.486Z,69.15
2018-09-11T10:11:57.236Z,69.74
2018-09-11T10:12:37.965Z,69.74
2018-09-11T10:13:18.749Z,70.32
2018-09-11T10:13:59.513Z,70.03
2018-09-11T10:14:40.352Z,70.61
2018-09-11T10:15:21.173Z,70.51
2018-09-11T10:16:01.898Z,70.71
2018-09-11T10:16:42.627Z,70.9
2018-09-11T10:17:23.442Z,71.1
2018-09-11T10:18:04.190Z,70.9
2018-09-11T10:18:44.930Z,70.9
2018-09-11T10:19:25.661Z,70.51
2018-09-11T10:20:06.415Z,69.93
2018-09-11T10:20:47.229Z,69.84
2018-09-11T10:21:27.992Z,69.74
2018-09-11T10:22:08.738Z,69.45
2018-09-11T10:22:49.590Z,69.74
2018-09-11T10:23:30.416Z,69.84
2018-09-11T10:24:11.233Z,69.74
2018-09-11T10:24:51.995Z,70.12
2018-09-11T10:25:32.765Z,70.03
2018-09-11T10:26:13.631Z,69.64
2018-09-11T10:26:54.307Z,69.54
2018-09-11T10:27:35.050Z,69.64
2018-09-11T10:28:15.777Z,70.12
2018-09-11T10:28:56.540Z,70.03
2018-09-11T10:29:37.345Z,70.03
2018-09-11T10:30:18.113Z,69.93
2018-09-11T10:30:58.891Z,69.64
2018-09-11T10:31:39.640Z,69.06
2018-09-11T10:32:20.373Z,69.06
2018-09-11T10:33:01.117Z,68.38
2018-09-11T10:33:42.079Z,68.77
2018-09-11T10:34:22.785Z,68.87
2018-09-11T10:35:03.511Z,68.77
2018-09-11T10:35:44.281Z,68.67
2018-09-11T10:36:25.084Z,68.67
2018-09-11T10:37:05.952Z,68.08
2018-09-11T10:37:46.668Z,67.8
2018-09-11T10:38:27.373Z,67.89
2018-09-11T10:39:08.109Z,67.93
2018-09-11T10:39:48.874Z,67.99
2018-09-11T10:40:29.714Z,68.02
2018-09-11T10:41:10.520Z,68.38
2018-09-11T10:41:51.327Z,67.99
2018-09-11T10:42:32.027Z,68.28
2018-09-11T10:43:12.867Z,68.48
2018-09-11T10:43:53.647Z,68.51
2018-09-11T10:44:34.374Z,68.77
2018-09-11T10:45:15.132Z,68.67
2018-09-11T10:45:55.903Z,68.99
2018-09-11T10:46:36.685Z,69.06
2018-09-11T10:47:17.531Z,69.15
2018-09-11T10:47:58.380Z,68.96
2018-09-11T10:48:39.213Z,69.15
2018-09-11T10:49:19.895Z,68.38
2018-09-11T10:50:00.684Z,67.89
2018-09-11T10:50:41.500Z,67.63
2018-09-11T10:51:22.278Z,67.7
2018-09-11T10:52:03.011Z,67.73
2018-09-11T10:52:43.793Z,67.93
2018-09-11T10:53:24.660Z,68.32
2018-09-11T10:54:05.451Z,68.9
2018-09-11T10:54:46.249Z,68.99
2018-09-11T10:55:26.956Z,69.29
2018-09-11T10:56:07.778Z,68.6
2018-09-11T10:56:48.618Z,68.41
2018-09-11T10:57:29.443Z,68.99
2018-09-11T10:58:10.132Z,68.9
2018-09-11T10:58:50.840Z,68.9
2018-09-11T10:59:31.645Z,68.99
2018-09-11T11:00:12.436Z,68.9
2018-09-11T11:00:53.152Z,68.99
2018-09-11T11:01:33.978Z,69.48
2018-09-11T11:02:14.847Z,69.38
2018-09-11T11:02:55.706Z,68.99
2018-09-11T11:03:36.466Z,69.19
2018-09-11T11:04:17.251Z,68.9
2018-09-11T11:04:57.981Z,68.99
2018-09-11T11:05:38.769Z,69.48
2018-09-11T11:06:19.661Z,68.99
2018-09-11T11:07:00.402Z,69.58
2018-09-11T11:07:41.183Z,70.06
2018-09-11T11:08:21.960Z,69.77
2018-09-11T11:09:02.734Z,69.48
2018-09-11T11:09:43.597Z,70.06
2018-09-11T11:10:24.347Z,69.58
2018-09-11T11:11:05.089Z,69.38
2018-09-11T11:11:45.837Z,69.67
2018-09-11T11:12:26.630Z,69.67
2018-09-11T11:13:07.444Z,69.19
2018-09-11T11:13:48.142Z,69.38
2018-09-11T11:14:28.886Z,69.38
2018-09-11T11:15:09.695Z,69.09
2018-09-11T11:15:50.532Z,68.51
2018-09-11T11:16:31.285Z,67.54
2018-09-11T11:17:12.117Z,65.69
2018-09-11T11:17:52.796Z,65.79
2018-09-11T11:18:33.601Z,65.5
2018-09-11T11:19:14.309Z,65.59
2018-09-11T11:19:55.063Z,65.4
2018-09-11T11:20:35.770Z,65.2
2018-09-11T11:21:16.605Z,65.59
2018-09-11T11:21:57.427Z,65.59
2018-09-11T11:22:38.274Z,66.17
2018-09-11T11:23:19.047Z,66.08
2018-09-11T11:23:59.775Z,66.17
2018-09-11T11:24:40.508Z,66.08
2018-09-11T11:25:21.262Z,65.59
2018-09-11T11:26:02.119Z,66.08
2018-09-11T11:26:42.829Z,66.17
2018-09-11T11:27:23.751Z,66.17
2018-09-11T11:28:04.567Z,66.76
2018-09-11T11:28:45.311Z,66.47
2018-09-11T11:29:26.147Z,66.76
2018-09-11T11:30:06.848Z,66.56
2018-09-11T11:30:47.621Z,66.5
2018-09-11T11:31:28.438Z,66.66
2018-09-11T11:32:09.189Z,66.5
2018-09-11T11:32:49.941Z,66.86
2018-09-11T11:33:30.676Z,67.44
2018-09-11T11:34:11.480Z,67.67
2018-09-11T11:34:52.295Z,67.86
2018-09-11T11:35:33.078Z,68.35
2018-09-11T11:36:14.043Z,67.76
2018-09-11T11:36:54.914Z,69.32
2018-09-11T11:37:35.446Z,69.42
2018-09-11T11:38:16.222Z,70
2018-09-11T11:38:56.966Z,70.97
2018-09-11T11:39:37.720Z,71.17
2018-09-11T11:40:18.520Z,70.97
2018-09-11T11:40:59.420Z,70.58
2018-09-11T11:41:40.217Z,71.03
2018-09-11T11:42:21.110Z,71.56
2018-09-11T11:43:01.762Z,71.52
2018-09-11T11:43:42.609Z,71.33
2018-09-11T11:44:23.463Z,70.97
2018-09-11T11:45:04.202Z,71.07
2018-09-11T11:45:44.936Z,71.56
2018-09-11T11:46:25.704Z,71.36
2018-09-11T11:47:06.480Z,71.17
2018-09-11T11:47:47.377Z,71.26
2018-09-11T11:48:28.193Z,71.13
2018-09-11T11:49:08.959Z,71.66
2018-09-11T11:49:49.680Z,71.17
2018-09-11T11:50:30.444Z,71.52
2018-09-11T11:51:11.220Z,71.94
2018-09-11T11:51:52.083Z,72.43
2018-09-11T11:52:32.815Z,72.59
2018-09-11T11:53:13.553Z,72.88
2018-09-11T11:53:54.342Z,72.72
2018-09-11T11:54:35.108Z,72.53
2018-09-11T11:55:16.060Z,72.33
2018-09-11T11:55:56.670Z,72.53
2018-09-11T11:56:37.393Z,72.53
2018-09-11T11:57:18.157Z,72.72
2018-09-11T11:57:58.989Z,72.63
2018-09-11T11:58:39.786Z,73.6
2018-09-11T11:59:20.612Z,73.21
2018-09-11T12:00:01.349Z,73.3
2018-09-11T12:00:42.078Z,73.4
2018-09-11T12:01:22.896Z,73.99
2018-09-11T12:02:03.643Z,74.18
2018-09-11T12:02:44.365Z,73.99
2018-09-11T12:03:25.088Z,73.69
2018-09-11T12:04:05.846Z,73.89
2018-09-11T12:04:46.713Z,73.5
2018-09-11T12:05:27.518Z,73.69
2018-09-11T12:06:08.307Z,73.79
2018-09-11T12:06:49.092Z,73.5
2018-09-11T12:07:29.904Z,74.08
2018-09-11T12:08:10.721Z,73.6
2018-09-11T12:08:51.453Z,74.18
2018-09-11T12:09:32.184Z,73.5
2018-09-11T12:10:12.999Z,73.4
2018-09-11T12:10:53.795Z,73.69
2018-09-11T12:11:34.595Z,73.5
2018-09-11T12:12:15.296Z,74.18
2018-09-11T12:12:56.098Z,74.48
2018-09-11T12:13:36.990Z,75.35
2018-09-11T12:14:17.756Z,75.25
2018-09-11T12:14:58.629Z,75.64
2018-09-11T12:15:39.373Z,76.12
2018-09-11T12:16:20.213Z,76.42
2018-09-11T12:17:00.938Z,76.03
2018-09-11T12:17:41.634Z,76.12
2018-09-11T12:18:22.414Z,76.03
2018-09-11T12:19:03.141Z,76.71
2018-09-11T12:19:43.920Z,76.42
2018-09-11T12:20:24.742Z,76.42
2018-09-11T12:21:05.558Z,76.12
2018-09-11T12:21:46.309Z,75.64
2018-09-11T12:22:27.040Z,76.32
2018-09-11T12:23:07.882Z,76.03
2018-09-11T12:23:48.633Z,76.22
2018-09-11T12:24:29.386Z,76.32
2018-09-11T12:25:10.132Z,76.42
2018-09-11T12:25:50.868Z,76.61
2018-09-11T12:26:31.750Z,76.81
2018-09-11T12:27:12.542Z,76.61
2018-09-11T12:27:53.254Z,76.32
2018-09-11T12:28:34.065Z,76.22
2018-09-11T12:29:14.841Z,76.03
2018-09-11T12:29:55.628Z,76.03
2018-09-11T12:30:36.384Z,76.22
2018-09-11T12:31:17.095Z,76.22
2018-09-11T12:31:57.927Z,76.42
2018-09-11T12:32:38.783Z,76.51
2018-09-11T12:33:19.664Z,76.51
2018-09-11T12:34:00.576Z,77
2018-09-11T12:34:41.370Z,76.32
2018-09-11T12:35:22.108Z,76.03
2018-09-11T12:36:02.886Z,76.12
2018-09-11T12:36:43.684Z,75.93
2018-09-11T12:37:24.478Z,75.35
2018-09-11T12:38:05.208Z,75.48
2018-09-11T12:38:45.961Z,76.22
2018-09-11T12:39:26.826Z,76.03
2018-09-11T12:40:07.560Z,75.48
2018-09-11T12:40:48.276Z,75.29
2018-09-11T12:41:29.064Z,76.32
2018-09-11T12:42:09.860Z,75.45
2018-09-11T12:42:50.676Z,76.03
2018-09-11T12:43:31.442Z,75.84
2018-09-11T12:44:12.134Z,75.93
2018-09-11T12:44:52.995Z,75.78
2018-09-11T12:45:33.803Z,75.45
2018-09-11T12:46:14.841Z,75.05
2018-09-11T12:46:55.436Z,75.74
2018-09-11T12:47:36.388Z,75.35
2018-09-11T12:48:17.225Z,75.58
2018-09-11T12:48:57.577Z,75.87
2018-09-11T12:49:38.411Z,75.54
2018-09-11T12:50:19.133Z,76.17
2018-09-11T12:50:59.886Z,75.68
2018-09-11T12:51:40.617Z,76.22
2018-09-11T12:52:21.416Z,76.17
2018-09-11T12:53:02.167Z,75.38
2018-09-11T12:53:42.870Z,75.48
2018-09-11T12:54:23.620Z,75.35
2018-09-11T12:55:04.439Z,75.87
2018-09-11T12:55:45.325Z,75.58
2018-09-11T12:56:26.071Z,76.17
2018-09-11T12:57:06.793Z,75.29
2018-09-11T12:57:47.524Z,75.58
2018-09-11T12:58:28.271Z,75.97
2018-09-11T12:59:09.060Z,76.55
2018-09-11T12:59:49.879Z,76.12
2018-09-11T13:00:30.706Z,76.03
2018-09-11T13:01:11.419Z,76.42
2018-09-11T13:01:52.153Z,76.45
2018-09-11T13:02:33.051Z,76.55
2018-09-11T13:03:13.723Z,75.97
2018-09-11T13:03:54.502Z,76.45
2018-09-11T13:04:35.215Z,76.22
2018-09-11T13:05:15.979Z,75.97
2018-09-11T13:05:56.993Z,75.78
2018-09-11T13:06:37.832Z,75.78
2018-09-11T13:07:18.603Z,76.26
2018-09-11T13:07:59.386Z,76.42
2018-09-11T13:08:40.186Z,76.22
2018-09-11T13:09:20.913Z,76.42
2018-09-11T13:10:01.732Z,77
2018-09-11T13:10:42.489Z,76.61
2018-09-11T13:11:23.214Z,76.42
2018-09-11T13:12:04.080Z,76.12
2018-09-11T13:12:44.973Z,75.93
2018-09-11T13:13:25.810Z,76.51
2018-09-11T13:14:06.526Z,77
2018-09-11T13:14:47.231Z,76.42
2018-09-11T13:15:28.015Z,76.22
2018-09-11T13:16:08.822Z,76.51
2018-09-11T13:16:49.558Z,76.32
2018-09-11T13:17:30.294Z,76.81
2018-09-11T13:18:11.064Z,76.81
2018-09-11T13:18:51.909Z,77.29
2018-09-11T13:19:32.667Z,76.9
2018-09-11T13:20:13.411Z,77.1
2018-09-11T13:20:54.234Z,76.61
2018-09-11T13:21:35.015Z,77.04
2018-09-11T13:22:15.928Z,77
2018-09-11T13:22:56.682Z,76.84
2018-09-11T13:23:37.459Z,76.81
2018-09-11T13:24:18.217Z,76.84
2018-09-11T13:24:59.059Z,76.65
2018-09-11T13:25:39.888Z,76.45
2018-09-11T13:26:20.782Z,77.14
2018-09-11T13:27:01.515Z,76.84
2018-09-11T13:27:42.356Z,76.81
2018-09-11T13:28:23.172Z,77
2018-09-11T13:29:03.943Z,77.48
2018-09-11T13:29:44.685Z,77.48
2018-09-11T13:30:25.388Z,77.97
2018-09-11T13:31:06.096Z,77.68
2018-09-11T13:31:46.889Z,77.68
2018-09-11T13:32:27.660Z,77.78
2018-09-11T13:33:08.422Z,77.29
2018-09-11T13:33:49.342Z,76.12
2018-09-11T13:34:30.073Z,77.29
2018-09-11T13:35:10.898Z,77.39
2018-09-11T13:35:51.603Z,77.48
2018-09-11T13:36:32.396Z,76.61
2018-09-11T13:37:13.238Z,77
2018-09-11T13:37:54.001Z,76.42
2018-09-11T13:38:34.759Z,76.81
2018-09-11T13:39:15.502Z,77
2018-09-11T13:39:56.314Z,76.32
2018-09-11T13:40:37.166Z,76.81
2018-09-11T13:41:18.018Z,76.9
2018-09-11T13:41:58.789Z,76.9
2018-09-11T13:42:39.539Z,77
2018-09-11T13:43:20.285Z,76.71
2018-09-11T13:44:01.052Z,77.1
2018-09-11T13:44:41.825Z,76.45
2018-09-11T13:45:22.632Z,77.29
2018-09-11T13:46:03.382Z,76.9
2018-09-11T13:46:44.194Z,76.65
2018-09-11T13:47:25.148Z,76.26
2018-09-11T13:48:05.800Z,76.17
2018-09-11T13:48:46.540Z,76.42
2018-09-11T13:49:27.312Z,76.81
2018-09-11T13:50:08.186Z,76.55
2018-09-11T13:50:48.962Z,77.14
2018-09-11T13:51:29.723Z,76.84
2018-09-11T13:52:10.483Z,76.45
2018-09-11T13:52:51.252Z,76.22
2018-09-11T13:53:32.086Z,76.17
2018-09-11T13:54:12.894Z,76.75
2018-09-11T13:54:53.615Z,76.26
2018-09-11T13:55:34.453Z,76.35
2018-09-11T13:56:15.321Z,76.07
2018-09-11T13:56:56.150Z,76.17
2018-09-11T13:57:36.874Z,76.17
2018-09-11T13:58:17.601Z,76.35
2018-09-11T13:58:58.321Z,77.04
2018-09-11T13:59:39.138Z,76.35
2018-09-11T14:00:19.925Z,76.26
2018-09-11T14:01:00.791Z,76.45
2018-09-11T14:01:41.567Z,76.26
2018-09-11T14:02:22.280Z,76.55
2018-09-11T14:03:03.065Z,75.78
2018-09-11T14:03:43.834Z,75.97
2018-09-11T14:04:24.559Z,76.17
2018-09-11T14:05:05.362Z,76.26
2018-09-11T14:05:46.155Z,76.26
2018-09-11T14:06:26.994Z,76.17
2018-09-11T14:07:07.834Z,76.35
2018-09-11T14:07:48.618Z,75.87
2018-09-11T14:08:29.434Z,76.35
2018-09-11T14:09:10.133Z,75.97
2018-09-11T14:09:50.875Z,76.07
2018-09-11T14:10:31.651Z,75.93
2018-09-11T14:11:12.462Z,75.97
2018-09-11T14:11:53.260Z,75.84
2018-09-11T14:12:34.031Z,76.42
2018-09-11T14:13:14.815Z,76.03
2018-09-11T14:13:55.672Z,76.22
2018-09-11T14:14:36.448Z,76.32
2018-09-11T14:15:17.207Z,76.81
2018-09-11T14:15:57.925Z,76.32
2018-09-11T14:16:38.639Z,76.42
2018-09-11T14:17:19.510Z,75.84
2018-09-11T14:18:00.336Z,76.42
2018-09-11T14:18:41.133Z,76.12
2018-09-11T14:19:21.907Z,76.03
2018-09-11T14:20:02.636Z,76.61
2018-09-11T14:20:43.506Z,76.61
2018-09-11T14:21:24.411Z,76.17
2018-09-11T14:22:05.059Z,75.84
2018-09-11T14:22:45.753Z,76.61
2018-09-11T14:23:26.542Z,76.61
2018-09-11T14:24:07.365Z,76.12
2018-09-11T14:24:48.119Z,76.07
2018-09-11T14:25:28.862Z,76.07
2018-09-11T14:26:09.662Z,76.03
2018-09-11T14:26:50.495Z,76.22
2018-09-11T14:27:31.314Z,76.32
2018-09-11T14:28:12.032Z,75.64
2018-09-11T14:28:52.828Z,74.96
2018-09-11T14:29:33.601Z,75.15
2018-09-11T14:30:14.388Z,75.64
2018-09-11T14:30:55.116Z,75.93
2018-09-11T14:31:35.845Z,76.32
2018-09-11T14:32:16.632Z,75.74
2018-09-11T14:32:57.440Z,75.54
2018-09-11T14:33:38.258Z,76.22
2018-09-11T14:34:19.051Z,76.32
2018-09-11T14:34:59.799Z,75.74
2018-09-11T14:35:40.495Z,76.42
2018-09-11T14:36:21.233Z,75.68
2018-09-11T14:37:02.057Z,75.64
2018-09-11T14:37:42.868Z,75.54
2018-09-11T14:38:23.594Z,75.74
2018-09-11T14:39:04.409Z,75.15
2018-09-11T14:39:45.327Z,75.35
2018-09-11T14:40:26.138Z,75.25
2018-09-11T14:41:06.894Z,75.45
2018-09-11T14:41:47.618Z,75.54
2018-09-11T14:42:28.394Z,75.54
2018-09-11T14:43:09.129Z,75.45
2018-09-11T14:43:49.973Z,75.35
2018-09-11T14:44:30.776Z,75.45
2018-09-11T14:45:11.560Z,75.54
2018-09-11T14:45:52.318Z,75.93
2018-09-11T14:46:33.195Z,75.64
2018-09-11T14:47:13.937Z,75.74
2018-09-11T14:47:54.660Z,76.12
2018-09-11T14:48:35.402Z,76.03
2018-09-11T14:49:16.136Z,76.22
2018-09-11T14:49:56.931Z,76.9
2018-09-11T14:50:37.723Z,76.22
2018-09-11T14:51:18.568Z,77
2018-09-11T14:51:59.341Z,76.42
2018-09-11T14:52:40.276Z,76.32
2018-09-11T14:53:20.923Z,76.42
2018-09-11T14:54:01.698Z,76.81
2018-09-11T14:54:42.591Z,77
2018-09-11T14:55:23.386Z,76.61
2018-09-11T14:56:04.142Z,76.81
2018-09-11T14:56:44.973Z,76.42
2018-09-11T14:57:25.855Z,76.97
2018-09-11T14:58:06.591Z,77
2018-09-11T14:58:47.339Z,76.81
2018-09-11T14:59:28.092Z,76.77
2018-09-11T15:00:08.918Z,77.58
2018-09-11T15:00:49.684Z,77.48
2018-09-11T15:01:30.424Z,77.87
2018-09-11T15:02:11.213Z,77.78
2018-09-11T15:02:51.972Z,77.74
2018-09-11T15:03:32.788Z,77.97
2018-09-11T15:04:13.582Z,77.64
2018-09-11T15:04:54.271Z,77.84
2018-09-11T15:05:35.125Z,77.97
2018-09-11T15:06:15.923Z,77.87
2018-09-11T15:06:56.739Z,77.55
2018-09-11T15:07:37.482Z,77.64
2018-09-11T15:08:18.245Z,77.87
2018-09-11T15:08:59.022Z,77.68
2018-09-11T15:09:39.804Z,78.71
2018-09-11T15:10:20.660Z,79
2018-09-11T15:11:01.477Z,78.42
2018-09-11T15:11:42.274Z,78.42
2018-09-11T15:12:23.070Z,78.81
2018-09-11T15:13:03.947Z,78.42
2018-09-11T15:13:44.715Z,78.81
2018-09-11T15:14:25.472Z,78.81
2018-09-11T15:15:06.234Z,79.3
2018-09-11T15:15:46.984Z,78.91
2018-09-11T15:16:27.858Z,78.71
2018-09-11T15:17:08.739Z,79.3
2018-09-11T15:17:49.560Z,79
2018-09-11T15:18:30.296Z,79.1
2018-09-11T15:19:11.038Z,78.81
2018-09-11T15:19:51.829Z,79.39
2018-09-11T15:20:32.643Z,79
2018-09-11T15:21:13.456Z,78.42
2018-09-11T15:21:54.165Z,79.3
2018-09-11T15:22:35.733Z,79.3
2018-09-11T15:23:16.490Z,79.1
2018-09-11T15:23:57.321Z,79.3
2018-09-11T15:24:38.194Z,79.2
2018-09-11T15:25:18.946Z,79.3
2018-09-11T15:25:59.662Z,79.1
2018-09-11T15:26:40.414Z,78.91
2018-09-11T15:27:21.278Z,79.49
2018-09-11T15:28:02.087Z,79.3
2018-09-11T15:28:42.860Z,79.64
2018-09-11T15:29:23.573Z,79.35
2018-09-11T15:30:04.408Z,79.49
2018-09-11T15:30:45.229Z,79.88
2018-09-11T15:31:26.016Z,79.3
2018-09-11T15:32:06.781Z,79.68
2018-09-11T15:32:47.562Z,79.25
2018-09-11T15:33:28.369Z,79.2
2018-09-11T15:34:09.135Z,79.49
2018-09-11T15:34:49.877Z,79.68
2018-09-11T15:35:30.619Z,79.2
2018-09-11T15:36:11.457Z,79.49
2018-09-11T15:36:52.246Z,79.68
2018-09-11T15:37:33.054Z,80.04
2018-09-11T15:38:13.844Z,80.04
2018-09-11T15:38:54.580Z,79.84
2018-09-11T15:39:35.449Z,79.78
2018-09-11T15:40:16.264Z,79.45
2018-09-11T15:40:57.040Z,79.94
2018-09-11T15:41:37.759Z,80.04
2018-09-11T15:42:18.566Z,79.74
2018-09-11T15:42:59.398Z,79.45
2018-09-11T15:43:40.247Z,79.94